createdAt,value
2022-10-12T00:03:40.105Z,45.20
2022-10-12T00:08:46.155Z,45.20
2022-10-12T00:13:49.509Z,45.20
2022-10-12T00:18:53.925Z,45.20
2022-10-12T00:24:00.783Z,45.20
2022-10-12T00:29:05.128Z,45.30
2022-10-12T00:34:08.385Z,45.20
2022-10-12T00:39:13.177Z,45.20
2022-10-12T00:44:37.698Z,45.20
2022-10-12T00:49:41.697Z,45.30
2022-10-12T00:54:49.073Z,45.10
2022-10-12T00:59:55.883Z,45.10
2022-10-12T01:04:59.983Z,45.10
2022-10-12T01:10:05.440Z,45.00
2022-10-12T01:15:09.814Z,45.00
2022-10-12T01:20:38.306Z,45.00
2022-10-12T01:26:01.601Z,45.10
2022-10-12T01:31:12.546Z,45.10
2022-10-12T01:36:20.651Z,45.10
2022-10-12T01:41:28.113Z,45.00
2022-10-12T01:46:42.583Z,45.10
2022-10-12T01:51:54.870Z,45.10
2022-10-12T01:57:04.933Z,45.10
2022-10-12T02:02:19.183Z,45.00
2022-10-12T02:07:30.358Z,45.10
2022-10-12T02:12:35.514Z,45.10
2022-10-12T02:17:42.976Z,45.10
2022-10-12T02:22:49.141Z,45.20
2022-10-12T02:27:57.577Z,45.10
2022-10-12T02:33:09.496Z,45.30
2022-10-12T02:38:17.320Z,45.20
2022-10-12T02:43:26.655Z,45.10
2022-10-12T02:48:31.578Z,45.20
2022-10-12T02:53:35.047Z,45.10
2022-10-12T02:58:38.598Z,45.00
2022-10-12T03:03:43.526Z,45.00
2022-10-12T03:08:46.733Z,45.00
2022-10-12T03:13:52.901Z,44.80
2022-10-12T03:18:57.819Z,44.80
2022-10-12T03:24:01.095Z,44.80
2022-10-12T03:29:04.726Z,44.70
2022-10-12T03:34:09.669Z,44.80
2022-10-12T03:39:13.345Z,44.80
2022-10-12T03:44:16.838Z,44.80
2022-10-12T03:49:21.472Z,44.80
2022-10-12T03:54:24.745Z,44.80
2022-10-12T03:59:27.977Z,44.80
2022-10-12T04:04:32.972Z,44.80
2022-10-12T04:09:36.288Z,44.80
2022-10-12T04:14:39.516Z,44.90
2022-10-12T04:19:44.455Z,44.90
2022-10-12T04:24:47.759Z,44.70
2022-10-12T04:29:51.134Z,44.70
2022-10-12T04:34:56.060Z,44.70
2022-10-12T04:39:59.238Z,44.70
2022-10-12T04:45:02.418Z,44.70
2022-10-12T04:50:08.233Z,44.70
2022-10-12T04:55:11.515Z,44.70
2022-10-12T05:00:15.670Z,44.70
2022-10-12T05:05:20.286Z,44.80
2022-10-12T05:10:23.672Z,44.80
2022-10-12T05:15:27.420Z,44.80
2022-10-12T05:20:32.007Z,44.80
2022-10-12T05:25:36.691Z,44.80
2022-10-12T05:30:40.916Z,44.80
2022-10-12T05:35:48.310Z,44.80
2022-10-12T05:40:57.718Z,44.90
2022-10-12T05:46:03.446Z,45.00
2022-10-12T05:51:08.553Z,45.00
2022-10-12T05:56:12.136Z,44.90
2022-10-12T06:01:15.547Z,44.90
2022-10-12T06:06:20.291Z,45.40
2022-10-12T06:11:23.728Z,45.30
2022-10-12T06:16:27.183Z,45.10
2022-10-12T06:21:34.201Z,45.00
2022-10-12T06:26:37.895Z,44.80
2022-10-12T06:31:41.173Z,44.70
2022-10-12T06:36:46.407Z,44.60
2022-10-12T06:41:49.638Z,44.40
2022-10-12T06:46:55.873Z,44.30
2022-10-12T06:52:00.553Z,44.30
2022-10-12T06:57:03.820Z,44.20
2022-10-12T07:02:07.247Z,44.20
2022-10-12T07:07:11.890Z,44.30
2022-10-12T07:12:15.232Z,44.20
2022-10-12T07:17:18.666Z,44.20
2022-10-12T07:22:23.412Z,44.20
2022-10-12T07:27:26.693Z,44.10
2022-10-12T07:32:30.097Z,44.90
2022-10-12T07:37:34.764Z,44.10
2022-10-12T07:42:53.752Z,44.10
2022-10-12T07:48:01.310Z,44.10
2022-10-12T07:53:06.071Z,44.10
2022-10-12T07:58:10.060Z,44.00
2022-10-12T08:03:13.360Z,44.10
2022-10-12T08:08:18.027Z,44.00
2022-10-12T08:13:21.312Z,43.90
2022-10-12T08:18:24.970Z,43.90
2022-10-12T08:23:30.370Z,43.80
2022-10-12T08:28:34.026Z,43.60
2022-10-12T08:33:37.436Z,43.50
2022-10-12T08:38:43.761Z,43.50
2022-10-12T08:44:08.775Z,43.40
2022-10-12T08:49:16.573Z,43.10
2022-10-12T08:54:26.059Z,43.30
2022-10-12T08:59:33.598Z,43.10
2022-10-12T09:04:50.928Z,43.20
2022-10-12T09:10:03.732Z,42.90
2022-10-12T09:15:14.533Z,43.00
2022-10-12T09:20:21.746Z,43.10
2022-10-12T09:25:28.476Z,43.10
2022-10-12T09:30:32.161Z,43.00
2022-10-12T09:35:35.840Z,43.20
2022-10-12T09:40:41.233Z,43.20
2022-10-12T09:45:45.204Z,43.00
2022-10-12T09:50:54.849Z,43.10
2022-10-12T09:56:03.781Z,42.80
2022-10-12T10:01:19.456Z,42.80
2022-10-12T10:06:26.705Z,42.60
2022-10-12T10:11:32.759Z,42.80
2022-10-12T10:16:47.580Z,42.80
2022-10-12T10:21:51.069Z,45.50
2022-10-12T10:26:58.481Z,46.40
2022-10-12T10:32:12.215Z,44.30
2022-10-12T10:37:23.184Z,43.00
2022-10-12T10:42:31.633Z,42.60
2022-10-12T10:47:43.043Z,42.30
2022-10-12T10:52:57.008Z,41.90
2022-10-12T10:58:06.435Z,41.10
2022-10-12T11:03:17.320Z,41.00
2022-10-12T11:08:25.947Z,41.00
2022-10-12T11:13:35.683Z,40.80
2022-10-12T11:18:44.831Z,40.40
2022-10-12T11:23:52.986Z,40.50
2022-10-12T11:29:00.501Z,40.30
2022-10-12T11:34:12.633Z,40.10
2022-10-12T11:39:22.846Z,40.10
2022-10-12T11:44:36.157Z,40.10
2022-10-12T11:49:49.431Z,40.00
2022-10-12T11:55:00.822Z,39.60
2022-10-12T12:00:08.539Z,39.60
2022-10-12T12:05:18.294Z,39.60
2022-10-12T12:11:04.526Z,39.70
2022-10-12T12:16:34.066Z,38.70
2022-10-12T12:22:18.984Z,38.70
2022-10-12T12:27:25.334Z,38.60
2022-10-12T12:32:44.632Z,39.20
2022-10-12T12:37:48.291Z,38.50
2022-10-12T12:42:51.619Z,39.10
2022-10-12T12:47:56.256Z,39.00
2022-10-12T12:53:06.236Z,38.70
2022-10-12T12:58:39.872Z,38.30
2022-10-12T13:04:05.806Z,38.00
2022-10-12T13:09:28.881Z,37.90
2022-10-12T13:14:49.741Z,38.00
2022-10-12T13:19:57.253Z,38.00
2022-10-12T13:25:03.558Z,38.20
2022-10-12T13:30:14.633Z,38.50
2022-10-12T13:35:32.106Z,38.30
2022-10-12T13:40:39.073Z,38.10
2022-10-12T13:45:46.786Z,38.40
2022-10-12T13:50:56.293Z,38.30
2022-10-12T13:56:05.182Z,38.20
2022-10-12T14:01:11.362Z,38.50
2022-10-12T14:06:29.908Z,38.70
2022-10-12T14:11:33.792Z,38.20
2022-10-12T14:16:37.188Z,38.70
2022-10-12T14:21:47.980Z,38.80
2022-10-12T14:26:56.042Z,38.70
2022-10-12T14:32:00.953Z,38.80
2022-10-12T14:37:07.866Z,38.90
2022-10-12T14:42:20.986Z,38.80
2022-10-12T14:47:26.671Z,38.70
2022-10-12T14:52:38.298Z,38.90
2022-10-12T14:57:41.527Z,38.80
2022-10-12T15:02:45.595Z,39.00
2022-10-12T15:07:51.231Z,39.10
2022-10-12T15:12:55.011Z,39.10
2022-10-12T15:17:58.929Z,39.20
2022-10-12T15:23:04.534Z,39.30
2022-10-12T15:28:07.763Z,39.30
2022-10-12T15:33:12.678Z,39.40
2022-10-12T15:38:17.689Z,39.40
2022-10-12T15:43:21.548Z,39.50
2022-10-12T15:48:25.030Z,39.50
2022-10-12T15:53:29.712Z,39.60
2022-10-12T15:58:32.953Z,39.70
2022-10-12T16:03:36.575Z,39.80
2022-10-12T16:08:41.479Z,39.80
2022-10-12T16:13:51.113Z,39.90
2022-10-12T16:18:57.417Z,40.00
2022-10-12T16:24:02.078Z,40.10
2022-10-12T16:29:05.573Z,40.20
2022-10-12T16:34:08.804Z,40.30
2022-10-12T16:39:13.429Z,40.50
2022-10-12T16:44:16.722Z,40.70
2022-10-12T16:49:20.022Z,40.80
2022-10-12T16:54:25.795Z,40.80
2022-10-12T16:59:29.155Z,40.90
2022-10-12T17:04:32.792Z,41.00
2022-10-12T17:09:37.549Z,41.10
2022-10-12T17:14:41.041Z,41.20
2022-10-12T17:19:44.569Z,41.30
2022-10-12T17:24:49.300Z,42.80
2022-10-12T17:29:53.073Z,42.10
2022-10-12T17:34:57.877Z,42.00
2022-10-12T17:40:03.189Z,42.00
2022-10-12T17:45:08.847Z,42.00
2022-10-12T17:50:12.262Z,42.00
2022-10-12T17:55:43.412Z,42.00
2022-10-12T18:00:42.107Z,42.10
2022-10-12T18:05:46.037Z,42.00
2022-10-12T18:10:51.475Z,42.10
2022-10-12T18:15:57.011Z,42.20
2022-10-12T18:21:01.367Z,42.30
2022-10-12T18:26:08.439Z,42.30
2022-10-12T18:31:19.469Z,42.60
2022-10-12T18:36:25.706Z,42.70
2022-10-12T18:41:32.392Z,42.50
2022-10-12T18:46:38.016Z,42.60
2022-10-12T18:51:46.226Z,42.70
2022-10-12T18:56:52.205Z,42.80
2022-10-12T19:01:57.155Z,42.80
2022-10-12T19:07:02.243Z,42.80
2022-10-12T19:12:09.288Z,43.00
2022-10-12T19:17:15.011Z,43.10
2022-10-12T19:22:20.079Z,43.00
2022-10-12T19:27:26.414Z,43.00
2022-10-12T19:32:31.024Z,43.20
2022-10-12T19:37:36.632Z,43.20
2022-10-12T19:42:42.636Z,43.20
2022-10-12T19:47:46.664Z,43.30
2022-10-12T19:52:51.627Z,43.30
2022-10-12T19:57:58.800Z,43.30
2022-10-12T20:03:05.839Z,43.40
2022-10-12T20:08:10.882Z,43.20
2022-10-12T20:13:16.337Z,43.30
2022-10-12T20:18:20.271Z,43.30
2022-10-12T20:23:24.579Z,43.30
2022-10-12T20:28:29.500Z,43.30
2022-10-12T20:33:32.926Z,43.40
2022-10-12T20:38:36.169Z,43.40
2022-10-12T20:43:41.902Z,43.40
2022-10-12T20:48:45.982Z,43.50
2022-10-12T20:53:50.898Z,43.50
2022-10-12T20:58:56.308Z,43.60
2022-10-12T21:03:59.796Z,43.70
2022-10-12T21:09:03.060Z,43.70
2022-10-12T21:14:08.318Z,43.80
2022-10-12T21:19:15.633Z,44.00
2022-10-12T21:24:19.398Z,44.10
2022-10-12T21:29:24.168Z,44.00
2022-10-12T21:34:27.579Z,44.20
2022-10-12T21:39:30.999Z,44.10
2022-10-12T21:44:36.753Z,44.00
2022-10-12T21:49:40.148Z,44.00
2022-10-12T21:54:43.396Z,43.90
2022-10-12T21:59:49.366Z,43.90
2022-10-12T22:04:52.627Z,43.90
2022-10-12T22:09:55.879Z,43.80
2022-10-12T22:15:00.471Z,43.80
2022-10-12T22:20:05.210Z,43.90
2022-10-12T22:25:09.363Z,43.80
2022-10-12T22:30:15.502Z,43.80
2022-10-12T22:35:18.811Z,43.80
2022-10-12T22:40:22.177Z,43.80
2022-10-12T22:45:28.215Z,43.80
2022-10-12T22:50:31.611Z,43.70
2022-10-12T22:55:37.055Z,43.60
2022-10-12T23:00:41.979Z,43.60
2022-10-12T23:05:49.657Z,43.60
2022-10-12T23:10:52.877Z,43.60
2022-10-12T23:16:01.497Z,43.60
2022-10-12T23:21:06.159Z,43.60
2022-10-12T23:26:12.049Z,43.60
2022-10-12T23:31:19.520Z,43.60
2022-10-12T23:36:23.089Z,43.70
2022-10-12T23:41:26.555Z,43.70
2022-10-12T23:46:31.133Z,43.70
2022-10-12T23:51:35.208Z,43.80
2022-10-12T23:56:38.538Z,43.80
